createdAt,value
2022-10-31T00:02:32.190Z,10.60
2022-10-31T00:05:29.703Z,10.30
2022-10-31T00:08:27.158Z,10.50
2022-10-31T00:11:24.601Z,10.10
2022-10-31T00:14:22.077Z,9.10
2022-10-31T00:17:19.529Z,8.10
2022-10-31T00:20:16.988Z,8.90
2022-10-31T00:23:14.463Z,7.80
2022-10-31T00:26:11.919Z,7.70
2022-10-31T00:29:09.370Z,7.80
2022-10-31T00:32:06.835Z,6.70
2022-10-31T00:35:04.307Z,6.30
2022-10-31T00:38:01.734Z,5.90
2022-10-31T00:40:59.191Z,5.60
2022-10-31T00:43:56.628Z,5.40
2022-10-31T00:46:54.066Z,6.20
2022-10-31T00:49:51.520Z,5.70
2022-10-31T00:52:48.965Z,5.50
2022-10-31T00:55:46.426Z,5.30
2022-10-31T00:58:44.004Z,5.50
2022-10-31T01:01:41.652Z,4.70
2022-10-31T01:04:39.337Z,5.00
2022-10-31T01:07:36.781Z,4.80
2022-10-31T01:10:34.224Z,4.60
2022-10-31T01:13:31.661Z,5.00
2022-10-31T01:16:30.608Z,4.90
2022-10-31T01:19:28.065Z,4.60
2022-10-31T01:22:25.531Z,4.50
2022-10-31T01:25:22.994Z,5.10
2022-10-31T01:28:20.465Z,5.30
2022-10-31T01:31:17.947Z,4.70
2022-10-31T01:34:15.401Z,4.80
2022-10-31T01:37:12.849Z,5.20
2022-10-31T01:40:10.293Z,4.50
2022-10-31T01:43:07.799Z,4.80
2022-10-31T01:46:05.259Z,5.10
2022-10-31T01:49:02.684Z,4.60
2022-10-31T01:52:00.144Z,4.90
2022-10-31T01:54:57.585Z,4.60
2022-10-31T01:57:55.046Z,5.50
2022-10-31T02:00:52.608Z,4.60
2022-10-31T02:03:50.218Z,4.40
2022-10-31T02:06:47.670Z,4.50
2022-10-31T02:09:45.145Z,4.90
2022-10-31T02:12:42.585Z,4.30
2022-10-31T02:15:40.042Z,4.40
2022-10-31T02:18:37.506Z,4.70
2022-10-31T02:21:34.960Z,4.30
2022-10-31T02:24:32.413Z,3.80
2022-10-31T02:27:29.876Z,4.00
2022-10-31T02:30:27.326Z,3.60
2022-10-31T02:33:24.783Z,3.60
2022-10-31T02:36:22.226Z,3.80
2022-10-31T02:39:19.665Z,3.50
2022-10-31T02:42:17.243Z,3.50
2022-10-31T02:45:14.692Z,3.20
2022-10-31T02:48:12.140Z,3.40
2022-10-31T02:51:09.588Z,3.30
2022-10-31T02:54:07.052Z,3.40
2022-10-31T02:57:04.512Z,3.50
2022-10-31T03:00:01.963Z,2.50
2022-10-31T03:02:59.710Z,3.30
2022-10-31T03:05:57.379Z,3.40
2022-10-31T03:08:54.827Z,3.50
2022-10-31T03:11:52.276Z,3.20
2022-10-31T03:14:49.739Z,3.10
2022-10-31T03:17:47.197Z,3.90
2022-10-31T03:20:44.650Z,3.10
2022-10-31T03:23:42.111Z,3.30
2022-10-31T03:26:39.541Z,3.70
2022-10-31T03:29:36.978Z,3.10
2022-10-31T03:32:34.430Z,3.00
2022-10-31T03:35:31.865Z,2.60
2022-10-31T03:38:29.319Z,2.80
2022-10-31T03:41:26.755Z,3.00
2022-10-31T03:44:24.233Z,3.30
2022-10-31T03:47:21.679Z,3.40
2022-10-31T03:50:19.132Z,3.70
2022-10-31T03:53:16.746Z,3.50
2022-10-31T03:56:14.247Z,3.80
2022-10-31T03:59:11.730Z,4.10
2022-10-31T04:02:09.438Z,4.00
2022-10-31T04:05:07.097Z,3.80
2022-10-31T04:08:04.563Z,4.10
2022-10-31T04:11:02.005Z,3.90
2022-10-31T04:13:59.481Z,4.00
2022-10-31T04:16:56.908Z,3.80
2022-10-31T04:19:54.350Z,3.80
2022-10-31T04:22:51.786Z,4.20
2022-10-31T04:25:49.227Z,4.30
2022-10-31T04:28:46.690Z,3.90
2022-10-31T04:31:44.147Z,4.70
2022-10-31T04:34:41.609Z,3.90
2022-10-31T04:37:39.062Z,4.20
2022-10-31T04:40:36.525Z,4.50
2022-10-31T04:43:34.020Z,3.90
2022-10-31T04:46:31.485Z,4.20
2022-10-31T04:49:28.954Z,4.10
2022-10-31T04:52:26.416Z,4.10
2022-10-31T04:55:23.871Z,3.90
2022-10-31T04:58:21.332Z,4.00
2022-10-31T05:01:18.871Z,3.90
2022-10-31T05:04:16.453Z,3.70
2022-10-31T05:07:13.867Z,4.00
2022-10-31T05:10:12.082Z,4.20
2022-10-31T05:13:09.638Z,3.80
2022-10-31T05:16:07.231Z,4.00
2022-10-31T05:19:04.709Z,3.70
2022-10-31T05:22:02.160Z,4.20
2022-10-31T05:24:59.600Z,4.00
2022-10-31T05:27:57.231Z,3.90
2022-10-31T05:30:54.933Z,4.10
2022-10-31T05:33:52.376Z,3.70
2022-10-31T05:36:49.828Z,3.80
2022-10-31T05:39:47.274Z,3.80
2022-10-31T05:42:44.713Z,4.10
2022-10-31T05:45:42.166Z,3.70
2022-10-31T05:48:39.622Z,3.30
2022-10-31T05:51:37.129Z,3.60
2022-10-31T05:54:34.589Z,3.60
2022-10-31T05:57:32.076Z,3.90
2022-10-31T06:00:29.517Z,2.90
2022-10-31T06:03:26.985Z,3.00
2022-10-31T06:06:24.403Z,3.40
2022-10-31T06:09:21.886Z,3.70
2022-10-31T06:12:19.366Z,3.10
2022-10-31T06:15:21.090Z,3.00
2022-10-31T06:18:21.352Z,3.00
2022-10-31T06:21:19.273Z,2.80
2022-10-31T06:24:17.075Z,2.90
2022-10-31T06:27:14.532Z,3.10
2022-10-31T06:30:11.994Z,3.10
2022-10-31T06:33:09.440Z,3.50
2022-10-31T06:36:06.877Z,3.60
2022-10-31T06:39:04.339Z,3.20
2022-10-31T06:42:01.790Z,3.60
2022-10-31T06:44:59.377Z,3.80
2022-10-31T06:48:15.972Z,4.00
2022-10-31T06:51:14.372Z,4.20
2022-10-31T06:54:11.863Z,4.90
2022-10-31T06:57:09.287Z,4.00
2022-10-31T07:00:06.726Z,4.40
2022-10-31T07:03:04.168Z,4.70
2022-10-31T07:06:01.756Z,4.40
2022-10-31T07:08:59.384Z,4.70
2022-10-31T07:11:57.124Z,5.20
2022-10-31T07:14:54.615Z,5.30
2022-10-31T07:17:52.052Z,4.80
2022-10-31T07:20:52.134Z,4.50
2022-10-31T07:23:49.956Z,4.80
2022-10-31T07:26:48.597Z,4.80
2022-10-31T07:29:46.463Z,5.10
2022-10-31T07:32:43.981Z,4.10
2022-10-31T07:35:41.685Z,5.00
2022-10-31T07:38:39.129Z,4.70
2022-10-31T07:41:36.606Z,5.20
2022-10-31T07:44:34.055Z,5.10
2022-10-31T07:47:31.506Z,5.00
2022-10-31T07:50:28.963Z,4.70
2022-10-31T07:53:26.439Z,5.20
2022-10-31T07:56:23.902Z,5.40
2022-10-31T07:59:21.393Z,5.20
2022-10-31T08:02:18.849Z,5.60
2022-10-31T08:05:16.317Z,5.70
2022-10-31T08:08:13.760Z,5.50
2022-10-31T08:11:11.213Z,6.30
2022-10-31T08:14:08.646Z,5.60
2022-10-31T08:17:06.094Z,6.20
2022-10-31T08:20:03.575Z,6.70
2022-10-31T08:23:01.069Z,6.70
2022-10-31T08:25:58.519Z,6.70
2022-10-31T08:28:56.018Z,7.30
2022-10-31T08:31:53.539Z,7.30
2022-10-31T08:34:50.990Z,7.60
2022-10-31T08:37:48.586Z,7.30
2022-10-31T08:40:46.050Z,6.40
2022-10-31T08:43:43.521Z,7.60
2022-10-31T08:46:40.993Z,6.60
2022-10-31T08:49:38.463Z,8.00
2022-10-31T08:53:03.091Z,8.50
2022-10-31T08:55:53.641Z,7.50
2022-10-31T08:58:52.188Z,8.40
2022-10-31T09:01:49.735Z,8.30
2022-10-31T09:04:47.549Z,7.90
2022-10-31T09:07:44.977Z,7.30
2022-10-31T09:10:42.433Z,8.40
2022-10-31T09:13:41.289Z,9.30
2022-10-31T09:16:39.163Z,8.00
2022-10-31T09:19:37.455Z,8.80
2022-10-31T09:22:34.906Z,9.10
2022-10-31T09:25:32.381Z,52.00
2022-10-31T09:28:29.831Z,21.70
2022-10-31T09:31:27.316Z,11.60
2022-10-31T09:34:24.739Z,10.10
2022-10-31T09:37:22.419Z,10.40
2022-10-31T09:40:19.845Z,9.00
2022-10-31T09:43:17.291Z,16.90
2022-10-31T09:46:14.740Z,15.90
2022-10-31T09:49:12.258Z,14.60
2022-10-31T09:55:08.285Z,10.20
2022-10-31T09:58:05.732Z,11.60
2022-10-31T10:01:03.294Z,20.00
2022-10-31T10:04:00.871Z,11.40
2022-10-31T10:06:58.515Z,10.20
2022-10-31T10:09:55.945Z,12.70
2022-10-31T10:12:53.377Z,12.20
2022-10-31T10:15:51.749Z,10.80
2022-10-31T10:18:49.230Z,14.40
2022-10-31T10:21:46.719Z,11.30
2022-10-31T10:24:44.186Z,9.80
2022-10-31T10:27:41.621Z,9.40
2022-10-31T10:30:39.123Z,10.40
2022-10-31T10:33:36.576Z,15.70
2022-10-31T10:36:35.740Z,11.60
2022-10-31T10:39:33.223Z,24.00
2022-10-31T10:42:48.670Z,12.30
2022-10-31T10:46:06.527Z,11.70
2022-10-31T10:49:06.806Z,9.90
2022-10-31T10:52:20.138Z,10.20
2022-10-31T10:55:21.653Z,11.90
2022-10-31T10:58:19.112Z,11.60
2022-10-31T11:04:18.883Z,12.50
2022-10-31T11:07:16.564Z,12.50
2022-10-31T11:10:16.200Z,13.30
2022-10-31T11:13:13.665Z,14.20
2022-10-31T11:16:11.288Z,13.30
2022-10-31T11:19:08.828Z,14.10
2022-10-31T11:22:06.285Z,13.20
2022-10-31T11:25:03.711Z,14.40
2022-10-31T11:28:01.169Z,15.50
2022-10-31T11:30:58.615Z,13.80
2022-10-31T11:33:56.085Z,14.60
2022-10-31T11:36:53.535Z,14.40
2022-10-31T11:39:54.418Z,20.90
2022-10-31T11:42:51.995Z,17.60
2022-10-31T11:45:49.440Z,16.70
2022-10-31T11:48:46.908Z,17.60
2022-10-31T11:51:44.432Z,18.10
2022-10-31T11:54:41.892Z,19.20
2022-10-31T11:57:39.543Z,19.20
2022-10-31T12:00:37.002Z,19.40
2022-10-31T12:03:34.481Z,19.80
2022-10-31T12:06:31.946Z,21.60
2022-10-31T12:09:29.420Z,20.80
2022-10-31T12:12:26.862Z,22.20
2022-10-31T12:15:24.295Z,21.50
2022-10-31T12:18:21.748Z,21.40
2022-10-31T12:21:19.210Z,21.20
2022-10-31T12:24:16.671Z,22.80
2022-10-31T12:27:14.152Z,21.90
2022-10-31T12:30:11.968Z,21.30
2022-10-31T12:33:09.441Z,21.10
2022-10-31T12:36:08.570Z,19.50
2022-10-31T12:39:08.630Z,20.20
2022-10-31T12:42:06.102Z,21.80
2022-10-31T12:45:03.723Z,21.30
2022-10-31T12:48:01.168Z,20.90
2022-10-31T12:50:58.623Z,22.40
2022-10-31T12:53:56.066Z,23.10
2022-10-31T12:56:53.527Z,23.50
2022-10-31T12:59:51.027Z,22.10
2022-10-31T13:02:48.475Z,22.60
2022-10-31T13:05:45.964Z,21.60
2022-10-31T13:08:43.436Z,23.50
2022-10-31T13:11:40.879Z,21.10
2022-10-31T13:14:38.406Z,23.90
2022-10-31T13:17:35.868Z,22.90
2022-10-31T13:20:33.318Z,21.90
2022-10-31T13:23:49.846Z,21.20
2022-10-31T13:26:48.486Z,23.50
2022-10-31T13:29:45.995Z,21.60
2022-10-31T13:32:43.497Z,23.70
2022-10-31T13:35:40.926Z,21.50
2022-10-31T13:38:38.807Z,24.00
2022-10-31T13:41:36.261Z,22.80
2022-10-31T13:44:38.263Z,24.40
2022-10-31T13:47:36.075Z,22.40
2022-10-31T13:50:33.533Z,23.90
2022-10-31T13:53:31.009Z,22.10
2022-10-31T13:56:28.453Z,22.70
2022-10-31T13:59:25.925Z,22.40
2022-10-31T14:02:23.438Z,23.00
2022-10-31T14:05:20.912Z,23.50
2022-10-31T14:08:18.383Z,22.40
2022-10-31T14:11:15.925Z,21.50
2022-10-31T14:14:13.463Z,23.40
2022-10-31T14:17:10.924Z,24.20
2022-10-31T14:20:08.367Z,23.60
2022-10-31T14:23:05.820Z,23.40
2022-10-31T14:26:03.247Z,22.00
2022-10-31T14:29:00.679Z,22.90
2022-10-31T14:31:58.145Z,21.10
2022-10-31T14:34:55.616Z,21.70
2022-10-31T14:37:53.056Z,22.10
2022-10-31T14:40:50.548Z,22.00
2022-10-31T14:43:48.007Z,19.80
2022-10-31T14:46:45.468Z,20.10
2022-10-31T14:49:42.917Z,20.20
2022-10-31T14:52:40.375Z,18.20
2022-10-31T14:55:37.860Z,17.70
2022-10-31T15:01:34.506Z,16.60
2022-10-31T15:04:33.613Z,18.30
2022-10-31T15:07:35.048Z,17.10
2022-10-31T15:10:36.248Z,18.70
2022-10-31T15:13:33.731Z,17.90
2022-10-31T15:19:29.649Z,16.80
2022-10-31T15:22:27.116Z,16.70
2022-10-31T15:25:24.579Z,17.50
2022-10-31T15:28:22.216Z,18.60
2022-10-31T15:31:19.660Z,18.20
2022-10-31T15:34:17.204Z,17.10
2022-10-31T15:37:14.829Z,19.70
2022-10-31T15:40:12.260Z,19.70
2022-10-31T15:43:09.723Z,19.20
2022-10-31T15:46:07.196Z,19.20
2022-10-31T15:49:04.667Z,17.70
2022-10-31T15:52:03.856Z,18.90
2022-10-31T15:55:01.479Z,18.90
2022-10-31T15:57:58.928Z,19.40
2022-10-31T16:00:56.475Z,19.40
2022-10-31T16:03:53.934Z,19.70
2022-10-31T16:06:51.391Z,19.50
2022-10-31T16:09:48.841Z,20.40
2022-10-31T16:12:46.310Z,35.10
2022-10-31T16:15:43.770Z,28.90
2022-10-31T16:18:41.221Z,30.80
2022-10-31T16:21:38.698Z,18.40
2022-10-31T16:24:36.127Z,16.80
2022-10-31T16:27:33.573Z,18.20
2022-10-31T16:30:31.032Z,16.20
2022-10-31T16:33:28.512Z,14.80
2022-10-31T16:36:34.834Z,16.30
2022-10-31T16:39:33.324Z,14.90
2022-10-31T16:42:30.799Z,14.90
2022-10-31T16:45:28.286Z,16.40
2022-10-31T16:48:26.019Z,17.90
2022-10-31T16:51:23.576Z,15.50
2022-10-31T16:54:21.132Z,16.10
2022-10-31T16:57:18.571Z,15.40
2022-10-31T17:00:16.356Z,16.00
2022-10-31T17:03:15.669Z,16.10
2022-10-31T17:06:13.105Z,15.90
2022-10-31T17:09:11.317Z,14.50
2022-10-31T17:12:08.809Z,16.30
2022-10-31T17:15:06.937Z,15.50
2022-10-31T17:18:04.961Z,16.20
2022-10-31T17:21:02.434Z,16.00
2022-10-31T17:23:59.922Z,16.80
2022-10-31T17:26:57.347Z,15.40
2022-10-31T17:29:55.207Z,16.60
2022-10-31T17:32:52.982Z,16.30
2022-10-31T17:35:50.733Z,16.10
2022-10-31T17:38:48.607Z,15.20
2022-10-31T17:41:47.055Z,14.60
2022-10-31T17:44:45.014Z,14.90
2022-10-31T17:47:43.460Z,15.60
2022-10-31T17:50:41.229Z,16.10
2022-10-31T17:53:39.848Z,13.80
2022-10-31T17:56:37.368Z,15.10
2022-10-31T17:59:35.288Z,15.80
2022-10-31T18:02:33.189Z,16.90
2022-10-31T18:05:31.910Z,15.20
2022-10-31T18:08:29.790Z,15.60
2022-10-31T18:11:27.282Z,13.80
2022-10-31T18:14:24.755Z,14.30
2022-10-31T18:17:22.222Z,13.30
2022-10-31T18:20:20.123Z,14.20
2022-10-31T18:23:18.074Z,12.90
2022-10-31T18:26:16.159Z,13.70
2022-10-31T18:29:13.673Z,13.40
2022-10-31T18:32:11.681Z,14.80
2022-10-31T18:35:10.133Z,14.20
2022-10-31T18:38:08.180Z,13.80
2022-10-31T18:41:07.049Z,12.60
2022-10-31T18:44:04.616Z,11.80
2022-10-31T18:47:02.069Z,11.50
2022-10-31T18:49:59.979Z,11.90
2022-10-31T18:52:59.875Z,12.00
2022-10-31T18:55:59.338Z,11.20
2022-10-31T18:58:56.913Z,10.60
2022-10-31T19:01:54.491Z,9.70
2022-10-31T19:04:53.581Z,9.10
2022-10-31T19:07:51.674Z,7.20
2022-10-31T19:10:50.019Z,7.90
2022-10-31T19:13:47.593Z,6.80
2022-10-31T19:16:45.439Z,7.60
2022-10-31T19:19:43.656Z,8.60
2022-10-31T19:22:41.646Z,9.20
2022-10-31T19:25:42.013Z,9.30
2022-10-31T19:28:39.537Z,8.70
2022-10-31T19:31:38.085Z,9.30
2022-10-31T19:34:36.364Z,9.10
2022-10-31T19:37:34.082Z,10.00
2022-10-31T19:40:31.909Z,8.90
2022-10-31T19:43:31.411Z,9.20
2022-10-31T19:49:46.900Z,9.80
2022-10-31T19:52:45.309Z,9.80
2022-10-31T19:55:43.463Z,10.30
2022-10-31T19:58:41.724Z,9.70
2022-10-31T20:01:42.048Z,10.40
2022-10-31T20:04:40.078Z,10.00
2022-10-31T20:07:38.336Z,8.90
2022-10-31T20:10:35.875Z,9.30
2022-10-31T20:13:33.515Z,9.00
2022-10-31T20:16:31.613Z,8.50
2022-10-31T20:19:29.847Z,9.10
2022-10-31T20:22:28.021Z,7.90
2022-10-31T20:25:26.165Z,7.70
2022-10-31T20:28:23.827Z,7.90
2022-10-31T20:31:22.008Z,8.00
2022-10-31T20:34:20.670Z,7.60
2022-10-31T20:37:18.771Z,7.80
2022-10-31T20:40:16.455Z,7.10
2022-10-31T20:43:14.954Z,7.10
2022-10-31T20:46:13.066Z,7.20
2022-10-31T20:49:10.583Z,7.30
2022-10-31T20:52:09.459Z,8.60
2022-10-31T20:55:08.133Z,9.00
2022-10-31T20:58:05.622Z,9.50
2022-10-31T21:01:04.229Z,8.10
2022-10-31T21:04:01.825Z,8.10
2022-10-31T21:06:59.760Z,8.90
2022-10-31T21:09:57.346Z,8.80
2022-10-31T21:12:58.940Z,8.40
2022-10-31T21:18:54.270Z,9.00
2022-10-31T21:21:52.076Z,8.50
2022-10-31T21:24:49.659Z,9.50
2022-10-31T21:27:47.249Z,9.30
2022-10-31T21:30:45.391Z,9.00
2022-10-31T21:33:42.860Z,10.00
2022-10-31T21:36:40.348Z,9.80
2022-10-31T21:39:38.632Z,11.20
2022-10-31T21:42:36.376Z,9.30
2022-10-31T21:45:33.842Z,9.60
2022-10-31T21:48:31.642Z,8.60
2022-10-31T21:51:29.197Z,7.60
2022-10-31T21:54:30.510Z,10.40
2022-10-31T21:57:27.946Z,8.70
2022-10-31T22:00:25.416Z,10.50
2022-10-31T22:03:23.487Z,9.90
2022-10-31T22:06:20.954Z,10.00
2022-10-31T22:09:19.882Z,10.30
2022-10-31T22:12:18.134Z,8.80
2022-10-31T22:15:15.627Z,10.70
2022-10-31T22:18:13.145Z,10.20
2022-10-31T22:21:10.671Z,10.40
2022-10-31T22:24:08.353Z,10.00
2022-10-31T22:27:05.877Z,10.50
2022-10-31T22:30:03.369Z,10.90
2022-10-31T22:33:01.119Z,10.00
2022-10-31T22:35:59.370Z,9.70
2022-10-31T22:38:56.853Z,9.10
2022-10-31T22:41:54.392Z,9.20
2022-10-31T22:44:52.314Z,9.60
2022-10-31T22:47:49.841Z,10.20
2022-10-31T22:50:47.279Z,10.60
2022-10-31T22:53:44.745Z,10.30
2022-10-31T22:56:42.212Z,9.00
2022-10-31T22:59:39.863Z,9.90
2022-10-31T23:02:37.335Z,9.50
2022-10-31T23:05:34.843Z,8.50
2022-10-31T23:08:32.297Z,8.80
2022-10-31T23:11:32.424Z,8.80
2022-10-31T23:14:29.892Z,9.30
2022-10-31T23:17:27.341Z,8.80
2022-10-31T23:20:24.771Z,8.20
2022-10-31T23:23:22.196Z,8.40
2022-10-31T23:26:37.289Z,8.60
2022-10-31T23:29:34.739Z,8.60
2022-10-31T23:32:32.209Z,8.60
2022-10-31T23:35:29.677Z,9.50
2022-10-31T23:38:27.126Z,8.30
2022-10-31T23:41:24.603Z,8.10
2022-10-31T23:44:22.060Z,9.00
2022-10-31T23:47:19.500Z,7.90
2022-10-31T23:50:16.942Z,8.20
2022-10-31T23:53:14.394Z,7.10
2022-10-31T23:56:11.860Z,8.10
2022-10-31T23:59:09.336Z,7.80
